Elkhurst, Missouri
Current Conditions -  °F | °C
As of 6:54 AM on Saturday 22 Nov 2014 (Local Time) from KCOU Reporting Station
Overcast Overcast  
Wind Chill: 51°   Ceiling: 6000
Heat Index: 51°   Visibility: 10mi
Dew Point: 45°   Wind: 12mph
Humidity: 80%   Direction: 190°S
Pressure: 30.04"   Gusts: NA
Location:  38.8994°N, 92.2391°W
Report Text: KCOU 221254Z 19010KT 10SM OVC060 11/07 A3004 RMK AO2 SLP174 T01060072
Loading
Personal Weather Stations






























Interactive Weather Map New forecast layout! Learn more

10-Day Weather Forecast

Advertisements
Track Severe Weather on mobile